createdAt,value
2018-06-20T00:07:03.367Z,21.00
2018-06-20T00:10:37.022Z,20.90
2018-06-20T00:14:10.432Z,20.90
2018-06-20T00:17:44.136Z,20.70
2018-06-20T00:21:17.469Z,20.70
2018-06-20T00:24:50.842Z,20.60
2018-06-20T00:28:24.149Z,20.60
2018-06-20T00:31:57.496Z,20.50
2018-06-20T00:35:33.141Z,20.50
2018-06-20T00:39:08.248Z,20.50
2018-06-20T00:42:41.609Z,20.40
2018-06-20T00:46:14.864Z,20.50
2018-06-20T00:49:48.091Z,20.40
2018-06-20T00:53:21.338Z,20.50
2018-06-20T01:00:27.636Z,20.40
2018-06-20T01:04:00.896Z,20.40
2018-06-20T01:07:34.135Z,20.40
2018-06-20T01:11:07.396Z,20.30
2018-06-20T01:14:40.629Z,20.20
2018-06-20T01:25:19.847Z,20.10
2018-06-20T01:28:53.126Z,20.10
2018-06-20T01:35:59.441Z,20.00
2018-06-20T01:39:32.668Z,20.00
2018-06-20T01:43:06.057Z,19.90
2018-06-20T01:46:39.384Z,19.80
2018-06-20T01:50:12.615Z,19.80
2018-06-20T01:57:18.900Z,19.70
2018-06-20T02:00:52.137Z,19.70
2018-06-20T02:04:25.372Z,19.70
2018-06-20T02:07:58.616Z,19.80
2018-06-20T02:11:31.900Z,19.80
2018-06-20T02:15:05.173Z,19.90
2018-06-20T02:18:38.608Z,19.90
2018-06-20T02:25:44.911Z,20.10
2018-06-20T02:29:18.162Z,20.10
2018-06-20T02:32:51.416Z,20.10
2018-06-20T02:36:30.193Z,20.10
2018-06-20T02:40:03.453Z,20.10
2018-06-20T02:43:36.707Z,20.10
2018-06-20T02:47:09.952Z,20.00
2018-06-20T02:50:43.191Z,19.90
2018-06-20T02:54:16.448Z,19.90
2018-06-20T02:57:49.719Z,19.90
2018-06-20T03:01:24.151Z,19.80
2018-06-20T03:08:30.438Z,19.80
2018-06-20T03:12:03.708Z,19.80
2018-06-20T03:15:36.944Z,19.80
2018-06-20T03:19:10.193Z,19.80
2018-06-20T03:22:43.447Z,19.80
2018-06-20T03:26:16.684Z,19.90
2018-06-20T03:29:49.926Z,19.90
2018-06-20T03:33:23.226Z,20.00
2018-06-20T03:36:56.525Z,20.00
2018-06-20T03:40:29.765Z,20.00
2018-06-20T03:47:36.175Z,20.00
2018-06-20T03:51:09.417Z,20.10
2018-06-20T03:54:42.668Z,20.10
2018-06-20T03:58:15.921Z,20.10
2018-06-20T04:01:49.180Z,20.10
2018-06-20T04:05:22.425Z,20.00
2018-06-20T04:08:55.685Z,20.00
2018-06-20T04:12:28.956Z,20.10
2018-06-20T04:16:02.200Z,20.20
2018-06-20T04:19:35.488Z,20.20
2018-06-20T04:23:08.733Z,20.20
2018-06-20T04:26:42.006Z,20.30
2018-06-20T04:30:15.318Z,20.40
2018-06-20T04:33:50.736Z,20.50
2018-06-20T04:37:24.007Z,20.60
2018-06-20T04:40:57.844Z,20.70
2018-06-20T04:44:31.931Z,20.80
2018-06-20T04:51:38.200Z,20.90
2018-06-20T04:55:11.815Z,20.80
2018-06-20T04:58:45.158Z,20.80
2018-06-20T05:05:51.471Z,21.00
2018-06-20T05:09:24.696Z,21.10
2018-06-20T05:12:58.000Z,21.20
2018-06-20T05:16:31.260Z,21.30
2018-06-20T05:20:04.532Z,21.40
2018-06-20T05:23:37.853Z,21.50
2018-06-20T05:27:11.113Z,21.60
2018-06-20T05:30:49.906Z,21.80
2018-06-20T05:34:23.136Z,21.90
2018-06-20T05:37:56.395Z,21.90
2018-06-20T05:41:29.711Z,21.90
2018-06-20T05:45:02.973Z,21.90
2018-06-20T05:48:36.261Z,21.90
2018-06-20T05:52:09.600Z,22.00
2018-06-20T05:55:42.867Z,22.10
2018-06-20T05:59:16.141Z,22.30
2018-06-20T06:02:49.401Z,22.30
2018-06-20T06:06:22.645Z,22.50
2018-06-20T06:09:56.450Z,22.50
2018-06-20T06:13:31.071Z,22.60
2018-06-20T06:17:05.658Z,22.70
2018-06-20T06:20:42.345Z,22.70
2018-06-20T06:24:21.609Z,22.80
2018-06-20T06:28:18.095Z,22.80
2018-06-20T06:31:51.425Z,22.90
2018-06-20T06:39:01.733Z,22.90
2018-06-20T06:42:34.979Z,23.10
2018-06-20T06:46:09.942Z,23.20
2018-06-20T06:49:48.946Z,23.40
2018-06-20T06:53:29.138Z,23.50
2018-06-20T06:57:02.408Z,23.60
2018-06-20T07:00:35.660Z,23.80
2018-06-20T07:04:08.913Z,23.90
2018-06-20T07:07:42.174Z,24.10
2018-06-20T07:11:15.433Z,24.30
2018-06-20T07:14:48.973Z,24.40
2018-06-20T07:18:22.232Z,24.50
2018-06-20T07:21:55.491Z,24.60
2018-06-20T07:25:28.975Z,24.70
2018-06-20T07:29:02.224Z,24.90
2018-06-20T07:32:35.472Z,25.00
2018-06-20T07:36:08.758Z,25.20
2018-06-20T07:39:42.021Z,25.30
2018-06-20T07:43:15.256Z,25.40
2018-06-20T07:46:48.562Z,25.60
2018-06-20T07:50:21.777Z,25.60
2018-06-20T07:53:55.025Z,25.80
2018-06-20T07:57:28.334Z,25.90
2018-06-20T08:01:07.031Z,25.90
2018-06-20T08:04:45.685Z,26.00
2018-06-20T08:08:24.340Z,26.10
2018-06-20T08:15:41.402Z,26.20
2018-06-20T08:19:20.181Z,26.40
2018-06-20T08:22:53.421Z,26.50
2018-06-20T08:26:26.661Z,26.60
2018-06-20T08:30:01.424Z,26.70
2018-06-20T08:33:34.684Z,26.90
2018-06-20T08:37:07.970Z,27.10
2018-06-20T08:40:41.219Z,27.20
2018-06-20T08:44:14.488Z,27.20
2018-06-20T08:47:47.737Z,27.20
2018-06-20T08:51:20.976Z,27.30
2018-06-20T08:54:54.209Z,27.50
2018-06-20T08:58:27.453Z,27.60
2018-06-20T09:02:00.693Z,27.70
2018-06-20T09:05:39.213Z,27.70
2018-06-20T09:09:17.920Z,27.70
2018-06-20T09:12:56.621Z,27.80
2018-06-20T09:16:35.133Z,27.80
2018-06-20T09:20:08.444Z,27.70
2018-06-20T09:23:41.738Z,27.70
2018-06-20T09:27:15.481Z,27.80
2018-06-20T09:30:48.753Z,27.90
2018-06-20T09:34:21.996Z,28.00
2018-06-20T09:37:55.276Z,28.20
2018-06-20T09:41:29.641Z,28.40
2018-06-20T09:45:02.906Z,28.50
2018-06-20T09:48:36.212Z,28.40
2018-06-20T09:52:09.466Z,28.50
2018-06-20T09:55:42.704Z,28.40
2018-06-20T09:59:21.439Z,28.30
2018-06-20T10:03:00.035Z,28.30
2018-06-20T10:06:38.984Z,28.60
2018-06-20T10:10:17.529Z,28.80
2018-06-20T10:13:59.334Z,28.80
2018-06-20T10:17:33.693Z,28.80
2018-06-20T10:21:08.164Z,28.90
2018-06-20T10:24:41.503Z,29.00
2018-06-20T10:28:15.094Z,29.10
2018-06-20T10:31:49.618Z,29.10
2018-06-20T10:35:23.553Z,29.00
2018-06-20T10:38:57.538Z,28.80
2018-06-20T10:42:33.555Z,28.60
2018-06-20T10:46:12.471Z,28.60
2018-06-20T10:49:46.481Z,28.60
2018-06-20T10:53:20.036Z,28.70
2018-06-20T11:00:41.655Z,29.00
2018-06-20T11:04:20.214Z,29.10
2018-06-20T11:11:38.555Z,29.30
2018-06-20T11:15:11.876Z,29.20
2018-06-20T11:18:48.037Z,29.20
2018-06-20T11:22:21.554Z,29.30
2018-06-20T11:25:55.419Z,29.30
2018-06-20T11:29:28.942Z,29.30
2018-06-20T11:33:02.308Z,29.30
2018-06-20T11:36:37.478Z,29.30
2018-06-20T11:40:10.958Z,29.40
2018-06-20T11:43:44.249Z,29.50
2018-06-20T11:50:56.893Z,29.40
2018-06-20T11:58:13.013Z,29.50
2018-06-20T12:01:51.769Z,29.50
2018-06-20T12:05:30.593Z,29.60
2018-06-20T12:09:10.934Z,29.50
2018-06-20T12:12:50.657Z,29.50
2018-06-20T12:16:33.448Z,29.50
2018-06-20T12:20:12.250Z,29.50
2018-06-20T12:31:13.174Z,29.30
2018-06-20T12:34:51.750Z,29.30
2018-06-20T12:38:30.598Z,29.20
2018-06-20T12:42:09.243Z,29.20
2018-06-20T12:49:18.833Z,29.10
2018-06-20T12:52:52.233Z,29.10
2018-06-20T12:56:25.597Z,29.10
2018-06-20T12:59:58.921Z,29.20
2018-06-20T13:03:32.291Z,29.30
2018-06-20T13:10:38.896Z,29.90
2018-06-20T13:17:46.246Z,30.50
2018-06-20T13:21:19.612Z,30.60
2018-06-20T13:24:53.826Z,30.70
2018-06-20T13:28:27.170Z,30.70
2018-06-20T13:32:05.800Z,30.50
2018-06-20T13:35:44.466Z,30.40
2018-06-20T13:39:23.232Z,30.50
2018-06-20T13:43:01.797Z,30.60
2018-06-20T13:46:40.498Z,30.70
2018-06-20T13:50:13.851Z,30.90
2018-06-20T13:53:47.169Z,31.00
2018-06-20T13:57:20.503Z,31.30
2018-06-20T14:00:53.859Z,31.50
2018-06-20T14:04:27.179Z,31.70
2018-06-20T14:08:00.564Z,31.70
2018-06-20T14:11:33.931Z,31.90
2018-06-20T14:15:07.298Z,32.30
2018-06-20T14:18:40.710Z,32.80
2018-06-20T14:22:14.076Z,33.10
2018-06-20T14:25:47.854Z,33.40
2018-06-20T14:29:21.518Z,33.70
2018-06-20T14:36:43.919Z,34.00
2018-06-20T14:44:01.326Z,34.10
2018-06-20T14:47:34.971Z,34.50
2018-06-20T14:51:08.352Z,34.80
2018-06-20T14:54:41.604Z,34.90
2018-06-20T14:58:14.872Z,35.10
2018-06-20T15:01:48.142Z,35.20
2018-06-20T15:05:21.458Z,35.20
2018-06-20T15:08:54.716Z,35.30
2018-06-20T15:12:27.996Z,35.60
2018-06-20T15:16:06.515Z,35.70
2018-06-20T15:23:12.853Z,36.00
2018-06-20T15:26:51.508Z,36.10
2018-06-20T15:30:30.284Z,36.20
2018-06-20T15:34:10.193Z,36.40
2018-06-20T15:37:49.950Z,36.60
2018-06-20T15:41:24.149Z,36.80
2018-06-20T15:44:57.418Z,36.80
2018-06-20T15:48:31.025Z,36.40
2018-06-20T15:52:04.350Z,35.70
2018-06-20T15:55:37.656Z,35.30
2018-06-20T15:59:10.943Z,34.80
2018-06-20T16:02:44.470Z,34.40
2018-06-20T16:06:17.833Z,34.10
2018-06-20T16:09:54.208Z,34.40
2018-06-20T16:13:27.421Z,34.70
2018-06-20T16:17:00.787Z,35.20
2018-06-20T16:24:17.924Z,36.00
2018-06-20T16:27:56.511Z,36.10
2018-06-20T16:31:31.849Z,35.80
2018-06-20T16:35:05.210Z,35.20
2018-06-20T16:42:11.523Z,34.00
2018-06-20T16:45:44.809Z,33.50
2018-06-20T16:49:18.083Z,33.00
2018-06-20T16:52:51.372Z,32.60
2018-06-20T16:56:24.648Z,32.30
2018-06-20T16:59:58.024Z,32.00
2018-06-20T17:03:31.331Z,31.80
2018-06-20T17:07:04.820Z,31.60
2018-06-20T17:10:38.084Z,31.50
2018-06-20T17:14:16.707Z,31.40
2018-06-20T17:17:55.330Z,31.20
2018-06-20T17:21:36.737Z,31.10
2018-06-20T17:25:42.493Z,31.00
2018-06-20T17:29:15.776Z,30.90
2018-06-20T17:32:49.095Z,30.70
2018-06-20T17:36:22.406Z,30.60
2018-06-20T17:39:56.357Z,30.60
2018-06-20T17:43:29.684Z,30.50
2018-06-20T17:47:02.934Z,30.40
2018-06-20T17:54:09.205Z,30.30
2018-06-20T17:57:42.452Z,30.30
2018-06-20T18:01:15.731Z,30.20
2018-06-20T18:04:54.539Z,30.10
2018-06-20T18:08:33.036Z,30.10
2018-06-20T18:12:11.988Z,30.00
2018-06-20T18:15:50.616Z,29.90
2018-06-20T18:19:23.967Z,29.90
2018-06-20T18:22:57.220Z,29.80
2018-06-20T18:26:30.523Z,29.70
2018-06-20T18:30:03.868Z,29.70
2018-06-20T18:33:37.132Z,29.60
2018-06-20T18:37:10.417Z,29.60
2018-06-20T18:40:44.177Z,29.50
2018-06-20T18:44:17.448Z,29.40
2018-06-20T18:47:56.115Z,29.30
2018-06-20T18:51:29.429Z,29.20
2018-06-20T18:55:02.712Z,29.10
2018-06-20T18:58:41.452Z,29.10
2018-06-20T19:02:20.006Z,29.00
2018-06-20T19:05:58.942Z,28.90
2018-06-20T19:09:32.249Z,28.80
2018-06-20T19:13:05.657Z,28.70
2018-06-20T19:16:38.916Z,28.60
2018-06-20T19:20:12.178Z,28.50
2018-06-20T19:23:45.468Z,28.40
2018-06-20T19:27:18.757Z,28.30
2018-06-20T19:30:52.092Z,28.20
2018-06-20T19:34:25.575Z,28.10
2018-06-20T19:37:58.834Z,28.00
2018-06-20T19:41:32.116Z,27.90
2018-06-20T19:45:05.388Z,27.80
2018-06-20T19:48:38.668Z,27.70
2018-06-20T19:52:11.969Z,27.70
2018-06-20T19:55:45.308Z,27.60
2018-06-20T19:59:18.632Z,27.50
2018-06-20T20:02:52.735Z,27.40
2018-06-20T20:06:26.029Z,27.30
2018-06-20T20:09:59.284Z,27.30
2018-06-20T20:13:32.543Z,27.20
2018-06-20T20:17:05.973Z,27.10
2018-06-20T20:20:39.337Z,27.00
2018-06-20T20:24:12.606Z,27.00
2018-06-20T20:27:45.920Z,26.90
2018-06-20T20:34:52.608Z,26.80
2018-06-20T20:38:25.913Z,26.70
2018-06-20T20:41:59.244Z,26.70
2018-06-20T20:45:32.570Z,26.60
2018-06-20T20:49:05.987Z,26.60
2018-06-20T20:52:39.329Z,26.50
2018-06-20T20:56:12.636Z,26.40
2018-06-20T20:59:45.936Z,26.30
2018-06-20T21:10:25.356Z,26.30
2018-06-20T21:13:59.514Z,26.20
2018-06-20T21:17:32.857Z,26.20
2018-06-20T21:24:39.396Z,26.10
2018-06-20T21:28:13.764Z,26.00
2018-06-20T21:35:21.686Z,25.90
2018-06-20T21:38:55.014Z,25.80
2018-06-20T21:42:28.292Z,25.70
2018-06-20T21:46:01.729Z,25.70
2018-06-20T21:49:35.079Z,25.60
2018-06-20T21:53:08.360Z,25.50
2018-06-20T21:56:41.619Z,25.50
2018-06-20T22:00:14.889Z,25.50
2018-06-20T22:03:48.161Z,25.40
2018-06-20T22:07:21.504Z,25.30
2018-06-20T22:10:54.779Z,25.20
2018-06-20T22:14:28.028Z,25.20
2018-06-20T22:21:34.329Z,25.10
2018-06-20T22:25:07.595Z,25.00
2018-06-20T22:28:41.032Z,25.00
2018-06-20T22:32:14.376Z,24.90
2018-06-20T22:35:47.633Z,24.80
2018-06-20T22:39:21.780Z,24.80
2018-06-20T22:42:55.244Z,24.80
2018-06-20T22:53:34.952Z,24.60
2018-06-20T23:00:41.309Z,24.50
2018-06-20T23:04:14.593Z,24.50
2018-06-20T23:07:47.833Z,24.40
2018-06-20T23:11:21.560Z,24.40
2018-06-20T23:18:28.036Z,24.40
2018-06-20T23:22:01.273Z,24.30
2018-06-20T23:25:34.525Z,24.20
2018-06-20T23:29:07.809Z,24.20
2018-06-20T23:32:41.116Z,24.20
2018-06-20T23:36:14.467Z,24.10
2018-06-20T23:39:47.768Z,24.10
2018-06-20T23:43:21.022Z,24.10
2018-06-20T23:46:54.275Z,24.00
2018-06-20T23:50:27.524Z,24.00
2018-06-20T23:54:00.792Z,24.00
2018-06-20T23:57:34.340Z,23.90
